Time;durP1;ratioP1;P1;durP2;ratioP2;P2;SDS_P1;SDS_P2;PMS_P1;PMS_P2;Temp;Humidity;BMP_temperature;BMP_pressure;BME280_temperature;BME280_humidity;BME280_pressure;Samples;Min_cycle;Max_cycle;Signal;HPM_P1;HPM_P2
2023/08/14 00:01:22;;;;;;;9.65;2.22;;;21.40;53.50;;;;;;5058158;28;20057;-57
2023/08/14 00:03:51;;;;;;;5.38;1.83;;;21.40;53.60;;;;;;5056694;28;20052;-55
2023/08/14 00:06:18;;;;;;;5.90;2.15;;;21.40;53.70;;;;;;5060154;28;20053;-59
2023/08/14 00:08:45;;;;;;;5.82;1.88;;;21.30;53.60;;;;;;5058472;28;20068;-57
2023/08/14 00:11:12;;;;;;;4.10;2.00;;;21.30;53.70;;;;;;5054846;28;20456;-58
2023/08/14 00:13:50;;;;;;;11.00;1.90;;;21.30;53.70;;;;;;5056815;28;20065;-56
2023/08/14 00:16:17;;;;;;;4.22;1.55;;;21.30;53.80;;;;;;5057430;28;20055;-59
2023/08/14 00:18:46;;;;;;;4.05;1.60;;;21.20;53.80;;;;;;5056265;28;20052;-59
2023/08/14 00:21:13;;;;;;;5.85;1.70;;;21.20;53.90;;;;;;5057542;28;20056;-55
2023/08/14 00:23:41;;;;;;;6.15;2.08;;;21.20;54.00;;;;;;5057842;28;20059;-57
2023/08/14 00:26:08;;;;;;;6.20;2.10;;;21.20;54.10;;;;;;5056215;28;20063;-57
2023/08/14 00:28:35;;;;;;;4.00;1.90;;;21.10;54.20;;;;;;5058195;28;20500;-58
2023/08/14 00:31:03;;;;;;;6.53;2.13;;;21.10;54.20;;;;;;5055464;28;20052;-57
2023/08/14 00:33:30;;;;;;;5.45;2.08;;;21.10;54.20;;;;;;5059206;28;20052;-57
2023/08/14 00:35:59;;;;;;;5.35;2.10;;;21.10;54.20;;;;;;5058333;28;20048;-59
2023/08/14 00:38:26;;;;;;;7.78;2.17;;;21.00;54.20;;;;;;5058979;28;20095;-58
2023/08/14 00:40:53;;;;;;;4.53;2.33;;;21.00;54.20;;;;;;5056766;28;20789;-57
2023/08/14 00:43:21;;;;;;;7.18;1.83;;;21.00;54.30;;;;;;5055744;28;20103;-57
2023/08/14 00:45:52;;;;;;;7.10;2.17;;;20.90;54.30;;;;;;5058802;28;20404;-57
2023/08/14 00:48:19;;;;;;;4.40;1.88;;;20.90;54.40;;;;;;5059666;28;20059;-57
2023/08/14 00:50:47;;;;;;;5.45;2.03;;;20.90;54.50;;;;;;5061523;28;20055;-59
2023/08/14 00:53:18;;;;;;;4.70;1.73;;;20.90;54.60;;;;;;5059200;28;20048;-57
2023/08/14 00:55:46;;;;;;;4.40;1.92;;;20.90;54.70;;;;;;5058565;28;20402;-57
2023/08/14 00:58:13;;;;;;;4.10;2.05;;;20.80;54.60;;;;;;5060147;28;20052;-57
2023/08/14 01:00:42;;;;;;;5.68;1.95;;;20.80;54.70;;;;;;5074800;23;20060;-48
2023/08/14 01:03:10;;;;;;;4.95;1.88;;;20.80;54.70;;;;;;5023796;28;20060;-47
2023/08/14 01:05:37;;;;;;;4.43;1.92;;;20.80;54.90;;;;;;5021659;28;20054;-49
2023/08/14 01:08:05;;;;;;;4.80;1.90;;;20.70;54.80;;;;;;5020237;28;20480;-50
2023/08/14 01:10:43;;;;;;;4.35;2.08;;;20.70;54.90;;;;;;5025182;28;20057;-51
2023/08/14 01:13:19;;;;;;;3.28;1.60;;;20.70;55.00;;;;;;5021476;28;20058;-49
2023/08/14 01:15:50;;;;;;;4.72;2.22;;;20.70;55.00;;;;;;5021875;28;20492;-47
2023/08/14 01:18:20;;;;;;;7.13;1.90;;;20.70;55.40;;;;;;5017888;28;20145;-51
2023/08/14 01:21:04;;;;;;;4.72;2.00;;;20.60;54.90;;;;;;5018825;28;20056;-48
2023/08/14 01:23:38;;;;;;;4.47;2.42;;;20.60;55.00;;;;;;5023043;28;20076;-50
2023/08/14 01:26:08;;;;;;;4.18;1.60;;;20.60;55.00;;;;;;5020827;28;20060;-49
2023/08/14 01:28:35;;;;;;;7.43;1.85;;;20.60;55.10;;;;;;5020131;28;20453;-49
2023/08/14 01:31:03;;;;;;;6.22;2.33;;;20.60;55.20;;;;;;5017870;28;20053;-47
2023/08/14 01:33:30;;;;;;;8.02;2.47;;;20.50;55.20;;;;;;5021993;28;20057;-49
2023/08/14 01:36:07;;;;;;;5.65;2.05;;;20.50;55.20;;;;;;5021838;28;20085;-47
2023/08/14 01:38:42;;;;;;;10.48;2.08;;;20.50;55.30;;;;;;5025511;28;20496;-50
2023/08/14 01:41:18;;;;;;;3.78;1.98;;;20.50;55.40;;;;;;5024947;28;21045;-47
2023/08/14 01:43:49;;;;;;;3.33;1.58;;;20.40;55.40;;;;;;5022698;28;20053;-48
2023/08/14 01:46:18;;;;;;;9.18;2.22;;;20.40;55.50;;;;;;5020024;28;20075;-50
2023/08/14 01:48:47;;;;;;;6.10;2.00;;;20.40;55.50;;;;;;5022371;28;20050;-50
2023/08/14 01:51:16;;;;;;;4.70;1.63;;;20.40;55.50;;;;;;5020504;28;20061;-50
2023/08/14 01:53:43;;;;;;;7.50;3.22;;;20.40;55.50;;;;;;5022676;28;20925;-47
2023/08/14 01:56:12;;;;;;;5.65;2.63;;;20.40;55.50;;;;;;5021986;28;20053;-48
2023/08/14 01:58:39;;;;;;;5.32;2.33;;;20.40;55.60;;;;;;5021172;28;20061;-50
2023/08/14 02:01:06;;;;;;;6.07;2.40;;;20.30;55.60;;;;;;5022080;28;20064;-49
2023/08/14 02:03:34;;;;;;;3.65;2.20;;;20.30;55.70;;;;;;5042441;28;20052;-49
2023/08/14 02:06:01;;;;;;;5.53;2.50;;;20.30;55.70;;;;;;5042314;28;20049;-50
2023/08/14 02:08:28;;;;;;;3.88;2.20;;;20.20;55.80;;;;;;5039803;28;20401;-53
2023/08/14 02:10:55;;;;;;;6.55;2.50;;;20.20;55.90;;;;;;5042643;28;20080;-56
2023/08/14 02:13:24;;;;;;;6.18;1.88;;;20.20;55.90;;;;;;5039432;28;20056;-57
2023/08/14 02:15:51;;;;;;;4.47;1.90;;;20.20;56.00;;;;;;5041909;28;20067;-53
2023/08/14 02:18:18;;;;;;;7.80;2.15;;;20.20;56.00;;;;;;5040517;28;20479;-57
2023/08/14 02:20:47;;;;;;;8.45;2.13;;;20.10;56.00;;;;;;5041790;28;20045;-54
2023/08/14 02:23:14;;;;;;;4.13;1.85;;;20.10;56.20;;;;;;5042571;28;20051;-56
2023/08/14 02:25:41;;;;;;;14.38;2.83;;;20.10;56.20;;;;;;5042305;28;20045;-56
2023/08/14 02:28:09;;;;;;;2.88;1.95;;;20.10;56.30;;;;;;5040169;28;20432;-56
2023/08/14 02:30:41;;;;;;;5.55;1.92;;;20.10;56.30;;;;;;5042241;28;20059;-56
2023/08/14 02:33:10;;;;;;;7.55;2.20;;;20.00;56.40;;;;;;5041193;28;20053;-51
2023/08/14 02:35:37;;;;;;;6.22;2.22;;;20.00;56.50;;;;;;5041589;28;20052;-56
2023/08/14 02:38:06;;;;;;;5.65;2.25;;;20.00;56.40;;;;;;5042432;28;20053;-56
2023/08/14 02:40:34;;;;;;;7.50;2.13;;;20.00;56.50;;;;;;5041859;28;20051;-57
2023/08/14 02:43:03;;;;;;;4.30;2.10;;;20.00;56.60;;;;;;5037475;28;20067;-54
2023/08/14 02:45:31;;;;;;;3.65;1.95;;;19.90;56.60;;;;;;5041509;28;20063;-56
2023/08/14 02:47:59;;;;;;;5.68;2.60;;;19.90;56.70;;;;;;5042498;28;20075;-56
2023/08/14 02:50:26;;;;;;;4.93;2.50;;;19.90;56.70;;;;;;5041414;28;20053;-56
2023/08/14 02:52:54;;;;;;;5.28;2.50;;;19.90;56.80;;;;;;5040058;28;20052;-56
2023/08/14 02:55:21;;;;;;;9.23;2.58;;;19.90;56.80;;;;;;5039989;28;20412;-55
2023/08/14 02:57:48;;;;;;;6.10;2.20;;;19.90;56.90;;;;;;5039327;28;20044;-55
2023/08/14 03:00:16;;;;;;;4.88;2.20;;;19.80;56.90;;;;;;5041037;28;20045;-55
2023/08/14 03:02:43;;;;;;;6.13;2.30;;;19.80;57.00;;;;;;5042186;28;20065;-56
2023/08/14 03:05:12;;;;;;;4.47;2.25;;;19.80;57.00;;;;;;5039912;28;20052;-56
2023/08/14 03:07:40;;;;;;;5.18;1.92;;;19.80;57.10;;;;;;5041096;28;20052;-56
2023/08/14 03:10:08;;;;;;;6.07;2.35;;;19.80;57.20;;;;;;5039576;28;20052;-56
2023/08/14 03:12:35;;;;;;;6.15;2.03;;;19.80;57.30;;;;;;5039842;28;20052;-56
2023/08/14 03:15:02;;;;;;;7.35;2.88;;;19.80;57.30;;;;;;5041808;28;20068;-55
2023/08/14 03:17:29;;;;;;;3.83;2.22;;;19.80;57.40;;;;;;5041262;28;20727;-56
2023/08/14 03:19:57;;;;;;;6.68;2.10;;;19.70;57.40;;;;;;5041977;28;20045;-57
2023/08/14 03:22:25;;;;;;;4.53;1.92;;;19.70;57.40;;;;;;5040766;28;20057;-56
2023/08/14 03:24:53;;;;;;;4.25;1.90;;;19.70;57.50;;;;;;5040515;28;20491;-55
2023/08/14 03:27:20;;;;;;;3.20;1.75;;;19.70;57.50;;;;;;5038279;28;20056;-55
2023/08/14 03:29:50;;;;;;;7.22;2.10;;;19.70;57.60;;;;;;5041396;28;20057;-56
2023/08/14 03:32:17;;;;;;;5.53;2.17;;;19.70;57.60;;;;;;5038935;28;20048;-51
2023/08/14 03:34:45;;;;;;;5.95;2.20;;;19.70;57.70;;;;;;5041988;28;20393;-56
2023/08/14 03:37:12;;;;;;;5.78;2.28;;;19.70;57.70;;;;;;5041057;28;20408;-57
2023/08/14 03:39:41;;;;;;;5.53;2.47;;;19.60;57.70;;;;;;5040895;28;20060;-55
2023/08/14 03:42:08;;;;;;;4.38;2.17;;;19.70;57.80;;;;;;5039089;28;20053;-56
2023/08/14 03:44:36;;;;;;;3.28;2.08;;;19.70;57.80;;;;;;5041298;28;20515;-56
2023/08/14 03:47:03;;;;;;;3.63;1.58;;;19.60;57.80;;;;;;5041304;28;20048;-54
2023/08/14 03:49:30;;;;;;;4.75;1.92;;;19.60;57.80;;;;;;5042236;28;20420;-55
2023/08/14 03:51:57;;;;;;;5.10;1.65;;;19.60;57.90;;;;;;5041119;28;20045;-52
2023/08/14 03:54:25;;;;;;;3.78;1.65;;;19.60;57.90;;;;;;5042243;28;20046;-56
2023/08/14 03:56:53;;;;;;;5.97;1.90;;;19.60;58.00;;;;;;5039932;28;20079;-56
2023/08/14 03:59:20;;;;;;;3.92;2.08;;;19.60;58.00;;;;;;5040077;28;20695;-56
2023/08/14 04:01:48;;;;;;;4.25;1.95;;;19.60;58.00;;;;;;5040272;28;20053;-56
2023/08/14 04:04:15;;;;;;;6.40;2.33;;;19.60;58.10;;;;;;5040552;28;20064;-53
2023/08/14 04:06:44;;;;;;;4.28;1.70;;;19.60;58.10;;;;;;5040580;28;20508;-56
2023/08/14 04:09:11;;;;;;;3.58;1.83;;;19.60;58.10;;;;;;5040709;28;20484;-53
2023/08/14 04:11:38;;;;;;;4.63;1.80;;;19.60;58.20;;;;;;5039827;28;20065;-55
2023/08/14 04:14:07;;;;;;;4.75;2.50;;;19.60;58.20;;;;;;5040084;28;20053;-56
2023/08/14 04:16:44;;;;;;;3.80;1.90;;;19.60;58.20;;;;;;5041020;28;20052;-56
2023/08/14 04:19:14;;;;;;;6.45;2.13;;;19.60;58.20;;;;;;5039619;28;20102;-56
2023/08/14 04:21:42;;;;;;;3.10;1.77;;;19.50;58.20;;;;;;5041665;28;20045;-53
2023/08/14 04:24:10;;;;;;;3.83;2.00;;;19.50;58.20;;;;;;5043958;28;20052;-55
2023/08/14 04:26:38;;;;;;;6.53;2.10;;;19.60;58.20;;;;;;5042404;28;20492;-50
2023/08/14 04:29:07;;;;;;;4.30;1.67;;;19.50;58.20;;;;;;5041555;28;20056;-47
2023/08/14 04:31:34;;;;;;;6.63;2.72;;;19.50;58.30;;;;;;5044112;28;20045;-48
2023/08/14 04:34:02;;;;;;;8.38;2.45;;;19.50;58.30;;;;;;5043620;28;20051;-47
2023/08/14 04:36:31;;;;;;;4.28;1.98;;;19.50;58.30;;;;;;5041733;28;20084;-49
2023/08/14 04:38:58;;;;;;;5.47;2.20;;;19.50;58.40;;;;;;5043984;28;20053;-50
2023/08/14 04:41:26;;;;;;;4.22;2.13;;;19.50;58.50;;;;;;5042242;28;20056;-49
2023/08/14 04:43:54;;;;;;;3.53;1.77;;;19.40;58.50;;;;;;5042284;28;20056;-46
2023/08/14 04:46:33;;;;;;;3.97;1.88;;;19.40;58.50;;;;;;5044480;28;20041;-48
2023/08/14 04:49:02;;;;;;;5.88;2.10;;;19.40;58.70;;;;;;5043060;28;20492;-47
2023/08/14 04:51:29;;;;;;;3.50;2.20;;;19.40;58.60;;;;;;5043077;28;20057;-47
2023/08/14 04:53:58;;;;;;;5.68;2.17;;;19.40;58.70;;;;;;5043807;28;20057;-50
2023/08/14 04:56:26;;;;;;;4.00;2.08;;;19.40;58.70;;;;;;5043257;28;20408;-45
2023/08/14 04:58:54;;;;;;;4.90;2.17;;;19.40;58.80;;;;;;5043264;28;20506;-49
2023/08/14 05:01:21;;;;;;;3.35;1.83;;;19.40;58.80;;;;;;5043107;28;20056;-47
2023/08/14 05:03:49;;;;;;;3.60;2.17;;;19.40;58.90;;;;;;5043521;28;20053;-48
2023/08/14 05:06:17;;;;;;;3.67;2.00;;;19.40;59.00;;;;;;5042633;28;20056;-48
2023/08/14 05:08:44;;;;;;;4.78;1.77;;;19.40;59.10;;;;;;5041952;28;20053;-49
2023/08/14 05:11:11;;;;;;;3.88;2.13;;;19.40;59.20;;;;;;5040086;28;20049;-51
2023/08/14 05:13:40;;;;;;;2.85;1.83;;;19.40;59.30;;;;;;5039419;28;20057;-48
2023/08/14 05:16:07;;;;;;;4.82;2.25;;;19.40;59.40;;;;;;5044043;28;20049;-48
2023/08/14 05:18:34;;;;;;;7.03;2.42;;;19.40;59.40;;;;;;5041692;28;21103;-49
2023/08/14 05:21:03;;;;;;;1.90;1.45;;;19.40;59.50;;;;;;5042764;28;20045;-51
2023/08/14 05:23:30;;;;;;;3.67;1.70;;;19.40;59.50;;;;;;5041207;28;20057;-50
2023/08/14 05:25:57;;;;;;;3.28;1.83;;;19.40;59.60;;;;;;5042625;28;20662;-49
2023/08/14 05:28:25;;;;;;;4.28;2.03;;;19.40;59.70;;;;;;5041284;28;20068;-48
2023/08/14 05:30:52;;;;;;;2.75;1.83;;;19.50;59.80;;;;;;5043055;28;20049;-48
2023/08/14 05:33:19;;;;;;;2.55;1.67;;;19.50;59.80;;;;;;5041552;28;20060;-47
2023/08/14 05:35:48;;;;;;;2.80;1.70;;;19.50;59.90;;;;;;5043168;28;20049;-48
2023/08/14 05:38:17;;;;;;;3.42;1.63;;;19.60;60.00;;;;;;5042196;28;20060;-56
2023/08/14 05:40:44;;;;;;;3.10;1.70;;;19.60;60.00;;;;;;5041052;28;20053;-56
2023/08/14 05:43:12;;;;;;;3.15;1.77;;;19.60;60.00;;;;;;5042613;28;20053;-56
2023/08/14 05:45:42;;;;;;;2.85;1.60;;;19.60;60.00;;;;;;5043831;28;20056;-56
2023/08/14 05:48:10;;;;;;;3.88;1.55;;;19.60;60.10;;;;;;5041344;28;20067;-56
2023/08/14 05:50:38;;;;;;;3.75;1.80;;;19.70;60.40;;;;;;5041885;28;20519;-56
2023/08/14 05:53:07;;;;;;;3.08;1.52;;;19.70;60.40;;;;;;5041550;28;20071;-55
2023/08/14 05:55:37;;;;;;;2.33;1.70;;;19.70;60.50;;;;;;5042613;28;20393;-56
2023/08/14 05:58:05;;;;;;;3.92;1.50;;;19.80;60.80;;;;;;5042851;28;20141;-56
2023/08/14 06:00:34;;;;;;;2.13;1.42;;;19.80;60.80;;;;;;5043188;28;20513;-55
2023/08/14 06:03:02;;;;;;;10.65;1.98;;;19.80;61.00;;;;;;5042289;28;20064;-53
2023/08/14 06:05:29;;;;;;;5.03;2.10;;;19.90;61.10;;;;;;5042398;28;20048;-56
2023/08/14 06:07:57;;;;;;;3.42;1.88;;;19.90;61.20;;;;;;5041438;28;20053;-56
2023/08/14 06:10:24;;;;;;;3.15;1.80;;;20.00;61.20;;;;;;5042937;28;20045;-56
2023/08/14 06:12:53;;;;;;;3.30;2.17;;;20.00;61.20;;;;;;5041046;28;20052;-56
2023/08/14 06:15:21;;;;;;;2.47;1.70;;;20.10;61.40;;;;;;5037468;28;20093;-54
2023/08/14 06:17:49;;;;;;;5.80;1.90;;;20.10;61.40;;;;;;5042546;28;20053;-53
2023/08/14 06:20:16;;;;;;;5.43;1.40;;;20.10;61.30;;;;;;5042645;28;20063;-56
2023/08/14 06:22:46;;;;;;;2.97;1.90;;;20.20;61.30;;;;;;5042275;28;20056;-56
2023/08/14 06:25:14;;;;;;;6.70;1.88;;;20.20;61.40;;;;;;5042663;28;20132;-56
2023/08/14 06:27:41;;;;;;;4.05;1.73;;;20.30;61.40;;;;;;5041505;28;20045;-56
2023/08/14 06:30:11;;;;;;;4.63;1.50;;;20.30;61.50;;;;;;5042580;28;20092;-56
2023/08/14 06:32:40;;;;;;;2.90;2.17;;;20.40;62.00;;;;;;5042500;28;20057;-56
2023/08/14 06:35:08;;;;;;;4.45;1.65;;;20.40;62.10;;;;;;5043044;28;20463;-55
2023/08/14 06:37:35;;;;;;;5.40;2.10;;;20.50;62.30;;;;;;5042540;28;20065;-56
2023/08/14 06:40:04;;;;;;;3.63;2.00;;;20.60;62.40;;;;;;5043983;28;20060;-56
2023/08/14 06:42:31;;;;;;;5.38;2.13;;;20.60;62.50;;;;;;5041143;28;20068;-56
2023/08/14 06:44:58;;;;;;;3.22;1.88;;;20.70;62.60;;;;;;5042255;28;20067;-57
2023/08/14 06:47:27;;;;;;;4.25;1.77;;;20.80;62.50;;;;;;5042981;28;20067;-56
2023/08/14 06:49:54;;;;;;;3.00;1.77;;;20.80;62.30;;;;;;5042208;28;20048;-56
2023/08/14 06:52:21;;;;;;;5.75;2.15;;;20.90;62.30;;;;;;5042011;28;20511;-56
2023/08/14 06:54:49;;;;;;;4.80;1.98;;;20.90;62.10;;;;;;5042233;28;20064;-55
2023/08/14 06:57:16;;;;;;;5.40;2.40;;;21.00;61.90;;;;;;5040149;28;20418;-56
2023/08/14 06:59:43;;;;;;;4.75;1.90;;;21.10;61.80;;;;;;5041948;28;20053;-56
2023/08/14 07:02:10;;;;;;;5.90;2.00;;;21.10;61.60;;;;;;5042592;28;20079;-56
2023/08/14 07:04:39;;;;;;;4.93;2.00;;;21.10;61.30;;;;;;5041972;28;20056;-57
2023/08/14 07:07:06;;;;;;;12.13;2.20;;;21.20;61.40;;;;;;5041629;28;20059;-52
2023/08/14 07:09:33;;;;;;;3.10;1.83;;;21.20;61.40;;;;;;5041964;28;20056;-55
2023/08/14 07:12:01;;;;;;;4.15;1.80;;;21.20;61.60;;;;;;5040693;28;20052;-56
2023/08/14 07:14:28;;;;;;;4.13;2.00;;;21.30;61.90;;;;;;5042432;28;20121;-55
2023/08/14 07:16:55;;;;;;;7.53;2.40;;;21.40;62.10;;;;;;5041458;28;20512;-56
2023/08/14 07:19:22;;;;;;;5.53;2.00;;;21.40;62.00;;;;;;5042955;28;20074;-56
2023/08/14 07:21:51;;;;;;;4.55;1.92;;;21.50;62.00;;;;;;5041382;28;20083;-56
2023/08/14 07:24:18;;;;;;;4.05;2.20;;;21.60;62.10;;;;;;5041576;28;20444;-56
2023/08/14 07:26:45;;;;;;;5.13;2.40;;;21.70;62.30;;;;;;5040165;28;21239;-56
2023/08/14 07:29:12;;;;;;;5.68;2.67;;;21.70;62.20;;;;;;5041867;28;20535;-56
2023/08/14 07:31:40;;;;;;;5.85;1.80;;;21.80;62.20;;;;;;5042377;28;20120;-56
2023/08/14 07:34:07;;;;;;;4.57;2.10;;;21.90;61.90;;;;;;5041151;28;20057;-56
2023/08/14 07:36:34;;;;;;;4.68;1.95;;;22.00;61.80;;;;;;5041024;28;20057;-56
2023/08/14 07:39:03;;;;;;;7.95;2.10;;;22.10;61.70;;;;;;5041725;28;20424;-56
2023/08/14 07:41:30;;;;;;;7.35;1.83;;;22.10;61.60;;;;;;5040758;28;20041;-56
2023/08/14 07:43:58;;;;;;;3.88;1.90;;;22.20;61.50;;;;;;5042567;28;20389;-56
2023/08/14 07:46:25;;;;;;;3.90;1.85;;;22.30;61.30;;;;;;5042325;28;20057;-56
2023/08/14 07:48:52;;;;;;;5.20;2.25;;;22.30;61.10;;;;;;5041796;28;20064;-55
2023/08/14 07:51:20;;;;;;;3.15;1.58;;;22.40;61.00;;;;;;5042415;28;20485;-55
2023/08/14 07:53:47;;;;;;;6.05;2.25;;;22.50;60.80;;;;;;5041353;28;20064;-56
2023/08/14 07:56:16;;;;;;;5.60;2.00;;;22.50;60.60;;;;;;5040545;28;20060;-56
2023/08/14 07:58:43;;;;;;;6.13;1.85;;;22.60;60.50;;;;;;5045551;28;20049;-51
2023/08/14 08:01:11;;;;;;;8.75;2.28;;;22.60;60.20;;;;;;5045697;28;20057;-48
2023/08/14 08:03:38;;;;;;;4.85;1.73;;;22.70;60.10;;;;;;5045298;28;20064;-48
2023/08/14 08:06:06;;;;;;;5.65;1.88;;;22.80;60.00;;;;;;5045031;28;20041;-49
2023/08/14 08:08:33;;;;;;;3.83;1.85;;;22.80;60.00;;;;;;5045790;28;20064;-49
2023/08/14 08:11:00;;;;;;;5.80;2.13;;;22.90;59.80;;;;;;5046144;28;20513;-50
2023/08/14 08:13:29;;;;;;;4.53;2.05;;;22.90;59.80;;;;;;5043929;28;20079;-49
2023/08/14 08:15:56;;;;;;;3.65;2.00;;;22.90;59.70;;;;;;5045012;28;20519;-49
2023/08/14 08:18:23;;;;;;;6.45;2.35;;;23.00;59.50;;;;;;5045353;28;20053;-51
2023/08/14 08:20:50;;;;;;;7.60;2.08;;;23.00;59.50;;;;;;5045963;28;20053;-51
2023/08/14 08:23:17;;;;;;;4.40;1.58;;;23.10;59.30;;;;;;5045051;28;20064;-49
2023/08/14 08:25:46;;;;;;;4.28;1.98;;;23.10;59.30;;;;;;5045065;28;20063;-50
2023/08/14 08:28:13;;;;;;;4.70;1.75;;;23.10;59.30;;;;;;5043417;28;20060;-50
2023/08/14 08:30:42;;;;;;;8.45;2.50;;;23.20;59.30;;;;;;5044534;28;20492;-49
2023/08/14 08:33:09;;;;;;;3.30;1.90;;;23.20;59.30;;;;;;5045544;28;20049;-52
2023/08/14 08:35:36;;;;;;;2.58;1.60;;;23.20;59.30;;;;;;5044101;28;20055;-49
2023/08/14 08:38:04;;;;;;;4.53;1.77;;;23.30;59.30;;;;;;5043695;28;20064;-52
2023/08/14 08:40:33;;;;;;;5.90;1.85;;;23.30;59.40;;;;;;5045334;28;20052;-49
2023/08/14 08:43:02;;;;;;;2.97;1.83;;;23.30;59.30;;;;;;5043904;28;20510;-49
2023/08/14 08:45:32;;;;;;;5.65;2.25;;;23.40;59.10;;;;;;5044540;28;20059;-49
2023/08/14 08:48:03;;;;;;;5.30;1.80;;;23.40;58.90;;;;;;5044854;28;20048;-49
2023/08/14 08:50:31;;;;;;;4.32;1.65;;;23.40;58.80;;;;;;5044566;28;20064;-52
2023/08/14 08:52:59;;;;;;;5.55;1.80;;;23.50;58.70;;;;;;5045067;28;20508;-50
2023/08/14 08:55:26;;;;;;;3.30;1.60;;;23.50;58.60;;;;;;5043977;28;20063;-50
2023/08/14 08:57:54;;;;;;;4.47;1.73;;;23.50;58.50;;;;;;5042388;28;20053;-50
2023/08/14 09:00:23;;;;;;;3.78;1.70;;;23.60;58.50;;;;;;5044048;28;20063;-49
2023/08/14 09:02:50;;;;;;;4.78;2.00;;;23.60;58.50;;;;;;5044505;28;20473;-48
2023/08/14 09:05:19;;;;;;;5.22;1.75;;;23.60;58.30;;;;;;5044131;28;20064;-50
2023/08/14 09:07:46;;;;;;;3.47;1.73;;;23.70;58.50;;;;;;5042755;28;20060;-47
2023/08/14 09:10:13;;;;;;;6.80;2.08;;;23.70;58.50;;;;;;5044315;28;20488;-48
2023/08/14 09:12:41;;;;;;;7.22;2.00;;;23.80;58.50;;;;;;5042484;28;20515;-49
2023/08/14 09:15:09;;;;;;;4.20;2.13;;;23.80;58.30;;;;;;5043887;28;20455;-51
2023/08/14 09:17:36;;;;;;;9.20;2.00;;;23.90;58.30;;;;;;5043829;28;20048;-49
2023/08/14 09:20:06;;;;;;;5.65;2.00;;;24.00;58.30;;;;;;5043258;28;20076;-50
2023/08/14 09:22:37;;;;;;;6.70;1.95;;;24.10;58.20;;;;;;5044233;28;20482;-53
2023/08/14 09:25:05;;;;;;;5.70;1.95;;;24.20;58.00;;;;;;5043894;28;20052;-52
2023/08/14 09:27:32;;;;;;;3.78;1.52;;;24.30;57.80;;;;;;5042570;28;20060;-50
2023/08/14 09:30:00;;;;;;;5.65;1.80;;;24.40;57.30;;;;;;5043847;28;20049;-49
2023/08/14 09:32:27;;;;;;;6.70;2.53;;;24.50;56.90;;;;;;5044111;28;20417;-53
2023/08/14 09:34:59;;;;;;;5.18;1.98;;;24.50;56.40;;;;;;5043756;28;20512;-49
2023/08/14 09:37:27;;;;;;;6.00;2.20;;;24.70;56.40;;;;;;5043005;28;20064;-51
2023/08/14 09:40:14;;;;;;;4.78;2.03;;;24.80;56.20;;;;;;5042810;28;20385;-51
2023/08/14 09:42:43;;;;;;;11.82;2.08;;;24.80;55.70;;;;;;5040988;28;20412;-51
2023/08/14 09:45:12;;;;;;;3.35;1.83;;;25.00;55.80;;;;;;5042401;28;20057;-55
2023/08/14 09:47:41;;;;;;;4.40;2.00;;;25.00;56.30;;;;;;5043416;28;20057;-51
2023/08/14 09:50:09;;;;;;;8.50;2.53;;;25.10;55.90;;;;;;5043714;28;20083;-52
2023/08/14 09:52:37;;;;;;;2.95;1.75;;;25.20;56.00;;;;;;5043566;28;20061;-50
2023/08/14 09:55:05;;;;;;;4.63;1.95;;;25.30;55.90;;;;;;5042781;28;20060;-49
2023/08/14 09:57:34;;;;;;;5.05;1.90;;;25.40;55.70;;;;;;5042745;28;20053;-51
2023/08/14 10:00:01;;;;;;;6.80;2.55;;;25.40;55.40;;;;;;5044123;28;20060;-51
2023/08/14 10:02:32;;;;;;;4.20;1.70;;;25.50;55.40;;;;;;5042626;28;20053;-52
2023/08/14 10:05:02;;;;;;;7.03;2.28;;;25.50;55.20;;;;;;5043620;28;20472;-53
2023/08/14 10:07:31;;;;;;;6.75;2.20;;;25.60;55.10;;;;;;5043765;28;20048;-55
2023/08/14 10:10:02;;;;;;;5.78;1.98;;;25.70;55.10;;;;;;5043178;28;20470;-51
2023/08/14 10:12:32;;;;;;;4.97;1.88;;;25.70;55.00;;;;;;5042095;28;20057;-52
2023/08/14 10:15:05;;;;;;;4.60;2.05;;;25.80;54.90;;;;;;5042881;28;20071;-52
2023/08/14 10:17:37;;;;;;;4.20;1.67;;;25.80;54.80;;;;;;5043008;28;20437;-53
2023/08/14 10:20:06;;;;;;;4.25;1.98;;;25.80;54.80;;;;;;5042613;28;20075;-53
2023/08/14 10:22:34;;;;;;;7.28;2.67;;;25.90;54.70;;;;;;5042063;28;20150;-51
2023/08/14 10:25:04;;;;;;;3.97;2.08;;;25.90;54.60;;;;;;5043324;28;20056;-52
2023/08/14 10:27:35;;;;;;;4.25;1.90;;;25.90;54.30;;;;;;5040844;28;20235;-52
2023/08/14 10:30:04;;;;;;;7.32;2.45;;;25.90;54.20;;;;;;5041872;28;20661;-55
2023/08/14 10:32:32;;;;;;;6.13;1.90;;;25.90;54.30;;;;;;5042159;28;20511;-55
2023/08/14 10:35:00;;;;;;;5.25;2.10;;;25.90;54.30;;;;;;5042061;28;20067;-50
2023/08/14 10:37:28;;;;;;;4.13;2.00;;;25.90;54.40;;;;;;5042501;28;20078;-50
2023/08/14 10:40:13;;;;;;;3.72;2.20;;;25.90;54.50;;;;;;5042340;28;20060;-53
2023/08/14 10:42:44;;;;;;;5.50;2.17;;;26.00;54.50;;;;;;5041324;28;20492;-50
2023/08/14 10:45:16;;;;;;;3.90;1.83;;;26.00;54.60;;;;;;5042321;28;20053;-52
2023/08/14 10:47:44;;;;;;;4.75;2.00;;;26.00;54.60;;;;;;5042008;28;20048;-50
2023/08/14 10:50:16;;;;;;;4.47;1.92;;;26.00;54.30;;;;;;5041855;28;20052;-50
2023/08/14 10:52:48;;;;;;;6.03;2.17;;;26.00;54.20;;;;;;5042338;28;20057;-51
2023/08/14 10:55:16;;;;;;;3.92;2.10;;;26.00;54.40;;;;;;5042180;28;20053;-51
2023/08/14 10:57:46;;;;;;;8.13;2.55;;;26.00;54.30;;;;;;5040450;28;20057;-53
2023/08/14 11:00:22;;;;;;;7.43;2.20;;;26.00;54.20;;;;;;5041412;28;20049;-54
2023/08/14 11:02:51;;;;;;;3.53;1.85;;;26.00;54.10;;;;;;5042030;28;20064;-52
2023/08/14 11:05:19;;;;;;;5.68;2.08;;;26.00;54.00;;;;;;5041674;28;20053;-52
2023/08/14 11:07:59;;;;;;;4.78;1.90;;;26.00;54.10;;;;;;5040815;28;20049;-51
2023/08/14 11:10:27;;;;;;;6.05;2.15;;;26.00;54.20;;;;;;5042281;28;20056;-50
2023/08/14 11:12:56;;;;;;;5.47;1.95;;;25.90;54.20;;;;;;5040059;28;20064;-53
2023/08/14 11:15:25;;;;;;;6.15;1.80;;;25.90;54.10;;;;;;5041712;28;20156;-51
2023/08/14 11:17:52;;;;;;;3.55;2.03;;;25.90;54.00;;;;;;5041351;28;20057;-52
2023/08/14 11:20:20;;;;;;;8.98;2.20;;;25.90;54.00;;;;;;5042854;28;20049;-51
2023/08/14 11:22:48;;;;;;;4.57;1.92;;;25.80;54.00;;;;;;5043835;28;20053;-52
2023/08/14 11:25:16;;;;;;;7.38;2.17;;;25.80;54.60;;;;;;5042746;28;20056;-50
2023/08/14 11:27:50;;;;;;;3.88;1.95;;;25.80;54.20;;;;;;5045334;28;20448;-50
2023/08/14 11:30:17;;;;;;;12.02;4.40;;;25.80;54.30;;;;;;5041297;28;20056;-52
2023/08/14 11:32:46;;;;;;;5.72;2.85;;;25.80;54.20;;;;;;5041265;28;20416;-50
2023/08/14 11:35:17;;;;;;;6.25;2.22;;;25.80;54.20;;;;;;5042297;28;20436;-53
2023/08/14 11:37:45;;;;;;;6.75;2.40;;;25.80;54.20;;;;;;5042632;28;20144;-53
2023/08/14 11:40:13;;;;;;;4.38;1.98;;;25.80;54.20;;;;;;5041459;28;20060;-52
2023/08/14 11:42:41;;;;;;;4.00;2.05;;;25.80;54.20;;;;;;5040147;28;20057;-52
2023/08/14 11:45:10;;;;;;;5.60;2.10;;;25.80;54.20;;;;;;5023922;28;20068;-51
2023/08/14 11:47:39;;;;;;;6.93;2.28;;;25.70;54.20;;;;;;5042602;28;20056;-49
2023/08/14 11:50:08;;;;;;;4.95;2.30;;;25.70;54.20;;;;;;5042320;28;20103;-50
2023/08/14 11:52:38;;;;;;;11.02;2.58;;;25.60;54.20;;;;;;5042766;28;20057;-51
2023/08/14 11:55:07;;;;;;;6.07;2.50;;;25.60;54.40;;;;;;5040793;28;20056;-52
2023/08/14 11:57:35;;;;;;;7.88;2.45;;;25.60;54.60;;;;;;5040267;28;20057;-51
2023/08/14 12:00:10;;;;;;;8.40;2.60;;;25.50;54.70;;;;;;5041118;28;20057;-53
2023/08/14 12:02:38;;;;;;;3.90;2.15;;;25.50;54.90;;;;;;5042024;28;20420;-50
2023/08/14 12:05:06;;;;;;;9.73;2.90;;;25.40;55.00;;;;;;5040760;28;20053;-51
2023/08/14 12:07:35;;;;;;;4.97;2.17;;;25.40;55.20;;;;;;5041720;28;20057;-55
2023/08/14 12:10:07;;;;;;;21.60;12.98;;;25.30;55.30;;;;;;5041492;28;20057;-51
2023/08/14 12:12:34;;;;;;;6.50;4.00;;;25.30;55.50;;;;;;5040325;28;20056;-50
2023/08/14 12:15:01;;;;;;;10.75;3.40;;;25.20;55.50;;;;;;5042116;28;20057;-52
2023/08/14 12:17:30;;;;;;;11.93;3.15;;;25.20;55.70;;;;;;5041241;28;20053;-50
2023/08/14 12:19:58;;;;;;;4.60;2.40;;;25.20;55.90;;;;;;5042316;28;20493;-49
2023/08/14 12:22:26;;;;;;;7.80;2.40;;;25.10;56.00;;;;;;5041296;28;20068;-52
2023/08/14 12:24:55;;;;;;;4.22;2.03;;;25.10;56.20;;;;;;5041327;28;20458;-50
2023/08/14 12:27:25;;;;;;;4.40;2.45;;;25.00;56.30;;;;;;5040373;28;20060;-51
2023/08/14 12:29:53;;;;;;;6.05;2.55;;;25.00;56.50;;;;;;5041065;28;20049;-52
2023/08/14 12:32:21;;;;;;;7.25;2.58;;;25.00;56.60;;;;;;5041882;28;20508;-51
2023/08/14 12:34:49;;;;;;;7.00;3.00;;;25.00;56.70;;;;;;5041335;28;20069;-50
2023/08/14 12:37:16;;;;;;;6.47;2.33;;;25.00;56.90;;;;;;5040610;28;20057;-49
2023/08/14 12:39:47;;;;;;;6.13;2.80;;;25.00;57.00;;;;;;5040953;28;20048;-58
2023/08/14 12:42:16;;;;;;;7.82;2.60;;;25.00;57.10;;;;;;5040682;28;20056;-58
2023/08/14 12:44:44;;;;;;;4.40;2.10;;;25.00;57.20;;;;;;5044358;28;20492;-58
2023/08/14 12:47:11;;;;;;;6.30;2.55;;;25.00;57.40;;;;;;5044485;28;20061;-58
2023/08/14 12:49:38;;;;;;;6.10;2.92;;;24.90;57.50;;;;;;5045634;28;20634;-56
2023/08/14 12:52:06;;;;;;;5.15;2.33;;;24.90;57.60;;;;;;5046677;28;20060;-57